Time;durP1;ratioP1;P1;durP2;ratioP2;P2;SDS_P1;SDS_P2;PMS_P1;PMS_P2;Temp;Humidity;BMP_temperature;BMP_pressure;BME280_temperature;BME280_humidity;BME280_pressure;Samples;Min_cycle;Max_cycle;Signal;HPM_P1;HPM_P2
2022/06/01 00:01:05;;;;;;;8.05;4.22;;;14.80;99.90;;;;;;4929818;29;20043;-79
2022/06/01 00:03:33;;;;;;;10.80;4.82;;;14.80;99.90;;;;;;4944941;29;20032;-79
2022/06/01 00:05:59;;;;;;;7.10;3.95;;;14.90;99.90;;;;;;4945960;29;20083;-80
2022/06/01 00:08:25;;;;;;;6.80;4.30;;;14.90;99.90;;;;;;4929595;29;20103;-82
2022/06/01 00:10:51;;;;;;;7.32;4.60;;;14.90;99.90;;;;;;4944361;29;20420;-80
2022/06/01 00:13:19;;;;;;;10.25;4.28;;;15.00;99.90;;;;;;4926218;29;20028;-82
2022/06/01 00:15:45;;;;;;;6.43;4.13;;;15.00;99.90;;;;;;4937284;29;20445;-81
2022/06/01 00:18:11;;;;;;;5.50;3.72;;;15.00;99.90;;;;;;4928892;29;20374;-80
2022/06/01 00:20:38;;;;;;;8.00;3.90;;;15.10;99.90;;;;;;4930224;29;20039;-78
2022/06/01 00:23:04;;;;;;;6.95;3.90;;;15.10;99.90;;;;;;4939356;29;20024;-81
2022/06/01 00:25:29;;;;;;;7.95;4.00;;;15.10;99.90;;;;;;4936801;29;20103;-82
2022/06/01 00:27:55;;;;;;;7.90;4.00;;;15.10;99.90;;;;;;4923325;29;20535;-83
2022/06/01 00:30:22;;;;;;;6.43;3.80;;;15.10;99.90;;;;;;4923998;29;20119;-78
2022/06/01 00:32:48;;;;;;;5.65;3.95;;;15.10;99.90;;;;;;4930852;29;20032;-81
2022/06/01 00:35:16;;;;;;;5.95;3.90;;;15.20;99.90;;;;;;4941125;29;20036;-81
2022/06/01 00:37:42;;;;;;;5.80;3.83;;;15.20;99.90;;;;;;4936163;29;20035;-81
2022/06/01 00:40:10;;;;;;;9.05;4.53;;;15.10;99.90;;;;;;4925906;29;20481;-82
2022/06/01 00:42:39;;;;;;;5.20;3.50;;;15.20;99.90;;;;;;4922818;29;20036;-81
2022/06/01 00:45:07;;;;;;;7.43;4.03;;;15.20;99.90;;;;;;4920294;29;20119;-80
2022/06/01 00:47:32;;;;;;;7.15;3.55;;;15.10;99.90;;;;;;4921698;29;20129;-81
2022/06/01 00:50:22;;;;;;;8.13;3.83;;;15.10;99.90;;;;;;4919992;29;20066;-80
2022/06/01 00:53:00;;;;;;;4.40;3.20;;;15.10;99.90;;;;;;4926493;29;20032;-79
2022/06/01 00:55:32;;;;;;;3.70;3.38;;;15.20;99.90;;;;;;4921921;29;20100;-81
2022/06/01 00:58:07;;;;;;;6.05;3.22;;;15.10;99.90;;;;;;4921747;29;20202;-81
2022/06/01 01:00:35;;;;;;;6.22;3.42;;;15.10;99.90;;;;;;4939279;29;20035;-80
2022/06/01 01:03:04;;;;;;;7.88;3.78;;;15.20;99.90;;;;;;4945668;29;20031;-81
2022/06/01 01:05:33;;;;;;;5.57;3.50;;;15.20;99.90;;;;;;4948272;29;20123;-81
2022/06/01 01:08:03;;;;;;;5.60;3.13;;;15.20;99.90;;;;;;4937303;29;20036;-81
2022/06/01 01:10:30;;;;;;;5.32;2.97;;;15.20;99.90;;;;;;4922991;29;20035;-79
2022/06/01 01:12:57;;;;;;;3.45;2.53;;;15.20;99.90;;;;;;4925003;29;20028;-82
2022/06/01 01:15:26;;;;;;;3.28;2.80;;;15.30;99.90;;;;;;4923496;29;20050;-81
2022/06/01 01:17:54;;;;;;;6.65;3.08;;;15.30;99.90;;;;;;4936781;29;20047;-81
2022/06/01 01:20:21;;;;;;;8.15;2.83;;;15.30;99.90;;;;;;4919872;29;20032;-81
2022/06/01 01:23:33;;;;;;;4.70;3.42;;;15.30;99.90;;;;;;4919716;29;20028;-81
2022/06/01 01:25:59;;;;;;;5.28;2.90;;;15.30;99.90;;;;;;4918237;29;20088;-80
2022/06/01 01:28:25;;;;;;;3.03;2.45;;;15.30;99.90;;;;;;4934106;29;20032;-81
2022/06/01 01:30:58;;;;;;;4.05;2.30;;;15.30;99.90;;;;;;4934070;29;20415;-81
2022/06/01 01:33:26;;;;;;;4.43;2.53;;;15.30;99.90;;;;;;4934311;29;20028;-81
2022/06/01 01:35:56;;;;;;;4.55;2.35;;;15.30;99.90;;;;;;4919643;29;20024;-80
2022/06/01 01:38:31;;;;;;;2.60;2.40;;;15.30;99.90;;;;;;4921160;29;20052;-80
2022/06/01 01:41:09;;;;;;;6.15;2.45;;;15.30;99.90;;;;;;4993464;23;20055;-87
2022/06/01 01:43:42;;;;;;;4.38;2.45;;;15.30;99.90;;;;;;4970572;28;20023;-88
2022/06/01 01:46:08;;;;;;;3.65;2.30;;;15.30;99.90;;;;;;4952234;29;20074;-88
2022/06/01 01:48:36;;;;;;;2.90;2.28;;;15.30;99.90;;;;;;4970025;28;20027;-87
2022/06/01 01:51:02;;;;;;;3.65;2.28;;;15.30;99.90;;;;;;4972609;28;20382;-88
2022/06/01 01:53:32;;;;;;;3.60;2.55;;;15.30;99.90;;;;;;4976143;28;20086;-88
2022/06/01 01:56:06;;;;;;;5.47;2.78;;;15.30;99.90;;;;;;4980628;28;20046;-85
2022/06/01 01:58:41;;;;;;;3.25;2.40;;;15.30;99.90;;;;;;4979671;28;20023;-86
2022/06/01 02:01:18;;;;;;;5.18;2.88;;;15.30;99.90;;;;;;4980499;28;20039;-85
2022/06/01 02:03:59;;;;;;;4.22;2.88;;;15.30;99.90;;;;;;4980158;28;20042;-84
2022/06/01 02:06:34;;;;;;;4.55;3.08;;;15.30;99.90;;;;;;4980676;28;20119;-84
2022/06/01 02:09:07;;;;;;;4.13;2.90;;;15.20;99.90;;;;;;4995720;28;20034;-85
2022/06/01 02:14:28;;;;;;;6.10;3.38;;;15.20;99.90;;;;;;4977169;29;20031;-87
2022/06/01 02:17:10;;;;;;;3.53;2.70;;;15.10;99.90;;;;;;4977237;29;20054;-85
2022/06/01 02:19:47;;;;;;;3.15;2.53;;;15.10;99.90;;;;;;4979186;28;20039;-87
2022/06/01 02:22:14;;;;;;;3.15;2.70;;;15.10;99.90;;;;;;4979694;28;20023;-87
2022/06/01 02:24:41;;;;;;;3.67;3.28;;;15.10;99.90;;;;;;4976469;28;20031;-89
2022/06/01 02:27:09;;;;;;;5.30;3.47;;;15.10;99.90;;;;;;4975936;28;20029;-89
2022/06/01 02:29:41;;;;;;;5.90;3.30;;;15.10;99.90;;;;;;4976895;28;20020;-87
2022/06/01 02:32:09;;;;;;;3.95;2.92;;;15.00;99.90;;;;;;4977006;28;20099;-86
2022/06/01 02:34:37;;;;;;;5.03;3.25;;;15.00;99.90;;;;;;4978150;28;20012;-86
2022/06/01 02:37:05;;;;;;;5.20;3.47;;;14.90;99.90;;;;;;4978435;28;20031;-88
2022/06/01 02:39:33;;;;;;;5.18;3.78;;;14.90;99.90;;;;;;4979175;28;20043;-85
2022/06/01 02:42:25;;;;;;;6.05;3.70;;;14.90;99.90;;;;;;4978983;28;20043;-86
2022/06/01 02:44:58;;;;;;;4.72;3.50;;;14.90;99.90;;;;;;4975699;28;20031;-85
2022/06/01 02:47:26;;;;;;;5.03;3.55;;;14.90;99.90;;;;;;4977376;28;20027;-85
2022/06/01 02:49:52;;;;;;;5.88;4.00;;;14.80;99.90;;;;;;4978475;28;20095;-85
2022/06/01 02:52:18;;;;;;;4.85;3.35;;;14.90;99.90;;;;;;4977763;28;20035;-86
2022/06/01 02:54:44;;;;;;;5.95;3.50;;;14.90;99.90;;;;;;4978331;28;20107;-87
2022/06/01 02:57:10;;;;;;;5.13;3.85;;;14.90;99.90;;;;;;4977371;28;20018;-87
2022/06/01 02:59:36;;;;;;;6.88;4.20;;;14.80;99.90;;;;;;4978361;28;20027;-86
2022/06/01 03:02:03;;;;;;;5.45;4.07;;;14.80;99.90;;;;;;4978146;28;20023;-87
2022/06/01 03:04:29;;;;;;;6.45;3.88;;;14.80;99.90;;;;;;4969407;28;20037;-89
2022/06/01 03:06:56;;;;;;;7.45;4.07;;;14.80;99.90;;;;;;4964706;28;20086;-87
2022/06/01 03:09:21;;;;;;;8.52;4.25;;;14.80;99.90;;;;;;4966405;29;20070;-88
2022/06/01 03:11:47;;;;;;;9.98;3.90;;;14.70;99.90;;;;;;4986591;28;20087;-90
2022/06/01 03:14:13;;;;;;;7.70;4.00;;;14.70;99.90;;;;;;4983645;28;20035;-88
2022/06/01 03:16:40;;;;;;;7.80;4.18;;;14.60;99.90;;;;;;4966505;28;20038;-89
2022/06/01 03:19:06;;;;;;;9.23;3.67;;;14.70;99.90;;;;;;4966468;29;20023;-87
2022/06/01 03:21:32;;;;;;;6.45;3.92;;;14.70;99.90;;;;;;4966905;28;20551;-88
2022/06/01 03:23:58;;;;;;;6.45;3.28;;;14.70;99.90;;;;;;4967253;29;20063;-88
2022/06/01 03:26:24;;;;;;;6.05;3.60;;;14.70;99.90;;;;;;4967532;28;20066;-90
2022/06/01 03:28:50;;;;;;;5.60;3.28;;;14.70;99.90;;;;;;4981611;28;20051;-88
2022/06/01 03:31:16;;;;;;;4.68;3.38;;;14.70;99.90;;;;;;4966690;29;20043;-91
2022/06/01 03:33:42;;;;;;;5.68;3.25;;;14.70;99.90;;;;;;4978678;28;20026;-87
2022/06/01 03:36:09;;;;;;;4.43;3.00;;;14.70;99.90;;;;;;4979519;28;20015;-87
2022/06/01 03:38:35;;;;;;;6.00;3.40;;;14.70;99.90;;;;;;4979226;28;20031;-87
2022/06/01 03:41:00;;;;;;;6.43;3.20;;;14.70;99.90;;;;;;4977866;28;20046;-90
2022/06/01 03:43:26;;;;;;;3.72;3.25;;;14.80;99.90;;;;;;4970890;29;20050;-89
2022/06/01 03:46:02;;;;;;;4.40;3.38;;;14.80;99.90;;;;;;4974672;29;20035;-89
2022/06/01 03:48:32;;;;;;;4.22;2.85;;;14.80;99.90;;;;;;4974323;28;20095;-88
2022/06/01 03:50:58;;;;;;;5.10;2.90;;;14.80;99.90;;;;;;4995352;28;20025;-85
2022/06/01 03:53:25;;;;;;;5.53;2.97;;;14.80;99.90;;;;;;4978986;28;20050;-87
2022/06/01 03:55:53;;;;;;;3.95;3.13;;;14.80;99.90;;;;;;4979572;28;20024;-86
2022/06/01 03:58:23;;;;;;;3.45;2.50;;;14.90;99.90;;;;;;4962610;28;20053;-87
2022/06/01 04:00:50;;;;;;;3.30;2.75;;;14.90;99.90;;;;;;4979035;28;20015;-86
2022/06/01 04:03:17;;;;;;;4.22;3.13;;;15.00;99.90;;;;;;4978363;28;20086;-86
2022/06/01 04:05:44;;;;;;;6.28;3.10;;;15.00;99.90;;;;;;4978629;28;20026;-85
2022/06/01 04:08:10;;;;;;;5.65;3.20;;;15.00;99.90;;;;;;4978600;28;20036;-87
2022/06/01 04:10:38;;;;;;;4.80;3.00;;;15.10;99.90;;;;;;4994787;28;20098;-86
2022/06/01 04:13:04;;;;;;;4.90;3.13;;;15.10;99.90;;;;;;4979021;28;20063;-88
2022/06/01 04:15:30;;;;;;;6.07;2.30;;;15.20;99.90;;;;;;4979413;28;20020;-88
2022/06/01 04:17:56;;;;;;;5.68;2.88;;;15.30;99.90;;;;;;4982469;28;20043;-86
2022/06/01 04:20:23;;;;;;;5.45;2.67;;;15.40;99.90;;;;;;4981963;28;20016;-88
2022/06/01 04:22:49;;;;;;;3.17;2.55;;;15.40;99.90;;;;;;4965423;28;20019;-88
2022/06/01 04:25:18;;;;;;;8.80;2.60;;;15.50;99.90;;;;;;4982395;28;20062;-87
2022/06/01 04:27:45;;;;;;;3.50;2.17;;;15.50;99.90;;;;;;4981708;28;20038;-86
2022/06/01 04:30:14;;;;;;;5.32;2.40;;;15.60;99.90;;;;;;4981768;28;20024;-88
2022/06/01 04:32:41;;;;;;;4.15;2.30;;;15.70;99.90;;;;;;4981399;28;20019;-88
2022/06/01 04:35:08;;;;;;;3.28;1.88;;;15.70;99.90;;;;;;4965793;28;20027;-87
2022/06/01 04:37:34;;;;;;;4.47;1.83;;;15.80;99.90;;;;;;4982603;28;20083;-86
2022/06/01 04:40:00;;;;;;;2.70;1.95;;;15.90;99.90;;;;;;4981059;28;20075;-87
2022/06/01 04:42:26;;;;;;;5.28;1.75;;;16.00;99.90;;;;;;4982116;28;20022;-86
2022/06/01 04:44:51;;;;;;;2.33;1.58;;;16.30;99.90;;;;;;4981900;28;20015;-87
2022/06/01 04:47:18;;;;;;;4.40;1.90;;;16.60;99.90;;;;;;4981444;28;20128;-86
2022/06/01 04:49:46;;;;;;;6.28;1.73;;;16.80;99.90;;;;;;4981733;28;20024;-84
2022/06/01 04:52:13;;;;;;;4.97;1.92;;;16.80;99.90;;;;;;4981347;28;20038;-86
2022/06/01 04:54:39;;;;;;;1.83;1.50;;;16.90;99.90;;;;;;4996743;28;20037;-85
2022/06/01 04:57:06;;;;;;;3.90;1.63;;;16.90;99.90;;;;;;4981290;28;20031;-86
2022/06/01 04:59:32;;;;;;;3.38;1.90;;;16.90;99.90;;;;;;4996746;28;20046;-87
2022/06/01 05:01:58;;;;;;;3.15;1.70;;;17.10;99.90;;;;;;4981004;28;20027;-86
2022/06/01 05:04:25;;;;;;;3.58;1.30;;;17.40;99.90;;;;;;4978564;28;20055;-88
2022/06/01 05:06:51;;;;;;;4.40;1.52;;;18.00;99.90;;;;;;4965648;29;20046;-88
2022/06/01 05:09:17;;;;;;;5.63;1.58;;;18.20;99.90;;;;;;4981975;28;20154;-89
2022/06/01 05:11:43;;;;;;;1.70;1.48;;;18.40;99.90;;;;;;4969075;29;20102;-88
2022/06/01 05:14:09;;;;;;;1.80;1.38;;;18.40;99.90;;;;;;4972455;28;20020;-86
2022/06/01 05:16:35;;;;;;;3.58;1.50;;;18.40;99.90;;;;;;4979604;28;20083;-87
2022/06/01 05:19:01;;;;;;;2.10;1.20;;;18.30;99.90;;;;;;4975635;28;20355;-88
2022/06/01 05:21:27;;;;;;;2.08;1.23;;;18.00;99.90;;;;;;4978786;28;20103;-87
2022/06/01 05:23:53;;;;;;;2.92;1.23;;;18.00;99.90;;;;;;4980447;28;20015;-88
2022/06/01 05:26:19;;;;;;;3.72;1.63;;;17.90;99.90;;;;;;4979130;28;20115;-87
2022/06/01 05:28:44;;;;;;;2.50;1.30;;;18.00;99.90;;;;;;4977795;28;20023;-85
2022/06/01 05:31:12;;;;;;;1.20;1.10;;;18.00;99.90;;;;;;4979322;28;20171;-87
2022/06/01 05:33:40;;;;;;;4.82;1.70;;;18.10;99.90;;;;;;4978397;29;20034;-85
2022/06/01 05:36:06;;;;;;;1.55;1.05;;;18.30;99.90;;;;;;4979656;28;20026;-85
2022/06/01 05:38:32;;;;;;;3.72;1.05;;;18.40;99.90;;;;;;4980012;28;20047;-85
2022/06/01 05:40:58;;;;;;;3.67;1.42;;;18.40;99.90;;;;;;4979874;28;20023;-84
2022/06/01 05:43:24;;;;;;;6.35;1.13;;;18.40;99.90;;;;;;4979236;28;20023;-84
2022/06/01 05:45:50;;;;;;;3.30;1.10;;;18.40;99.90;;;;;;4979073;28;20031;-85
2022/06/01 05:48:18;;;;;;;2.00;1.00;;;18.50;99.90;;;;;;4978815;28;20038;-83
2022/06/01 05:50:44;;;;;;;2.85;1.33;;;18.60;99.90;;;;;;4979221;28;20059;-85
2022/06/01 05:53:11;;;;;;;5.18;1.30;;;18.60;99.90;;;;;;4978473;28;20019;-83
2022/06/01 05:55:37;;;;;;;2.42;0.98;;;18.60;99.90;;;;;;4979430;28;20042;-83
2022/06/01 05:58:16;;;;;;;2.28;1.00;;;18.70;99.90;;;;;;4977912;28;20023;-83
2022/06/01 06:00:43;;;;;;;4.97;1.15;;;18.70;99.90;;;;;;4978503;28;20019;-85
2022/06/01 06:03:10;;;;;;;1.98;1.02;;;18.80;99.90;;;;;;4978023;29;20067;-83
2022/06/01 06:08:22;;;;;;;5.90;1.17;;;18.80;99.90;;;;;;4978323;28;20020;-86
2022/06/01 06:10:48;;;;;;;3.25;1.02;;;18.80;99.90;;;;;;4950779;29;20046;-85
2022/06/01 06:13:14;;;;;;;2.03;1.10;;;18.90;99.90;;;;;;4976406;29;20026;-86
2022/06/01 06:15:40;;;;;;;5.57;1.20;;;18.90;99.90;;;;;;4978689;28;20019;-85
2022/06/01 06:18:07;;;;;;;3.53;1.38;;;19.00;99.90;;;;;;4969370;29;20041;-85
2022/06/01 06:20:33;;;;;;;4.28;1.40;;;19.00;99.90;;;;;;4977074;28;20043;-89
2022/06/01 06:22:59;;;;;;;4.80;1.60;;;19.20;99.90;;;;;;4976789;29;20030;-85
2022/06/01 06:25:25;;;;;;;1.42;1.17;;;19.20;99.90;;;;;;4975594;28;20079;-86
2022/06/01 06:27:51;;;;;;;3.05;1.40;;;19.30;99.90;;;;;;4973890;28;20046;-85
2022/06/01 06:30:19;;;;;;;1.25;1.05;;;19.20;99.90;;;;;;4972729;28;20031;-85
2022/06/01 06:32:46;;;;;;;2.90;1.50;;;19.20;99.90;;;;;;4968705;29;20051;-85
2022/06/01 06:35:12;;;;;;;4.35;1.50;;;19.20;99.90;;;;;;4973370;28;20055;-87
2022/06/01 06:37:38;;;;;;;4.55;1.33;;;19.30;99.90;;;;;;4965098;29;20011;-85
2022/06/01 06:40:05;;;;;;;5.35;1.30;;;19.40;99.90;;;;;;4962653;28;20023;-86
2022/06/01 06:42:31;;;;;;;6.10;1.45;;;19.40;99.90;;;;;;4954572;29;20059;-85
2022/06/01 06:44:57;;;;;;;2.30;1.30;;;19.40;99.90;;;;;;4974727;29;20090;-84
2022/06/01 06:47:23;;;;;;;2.28;1.27;;;19.40;99.90;;;;;;4975588;28;20062;-84
2022/06/01 06:49:49;;;;;;;1.63;1.20;;;19.60;99.90;;;;;;4975903;29;20055;-86
2022/06/01 06:52:14;;;;;;;1.50;1.40;;;19.70;99.90;;;;;;4976709;28;20035;-86
2022/06/01 06:54:41;;;;;;;1.60;1.30;;;19.70;99.90;;;;;;4973361;29;20038;-86
2022/06/01 06:57:07;;;;;;;3.45;1.25;;;19.70;99.90;;;;;;4970248;29;20095;-87
2022/06/01 06:59:33;;;;;;;5.35;1.30;;;19.70;99.90;;;;;;4971957;28;20035;-87
2022/06/01 07:01:59;;;;;;;5.20;1.63;;;19.80;99.90;;;;;;4972033;28;20031;-84
2022/06/01 07:04:25;;;;;;;5.30;1.42;;;20.00;99.90;;;;;;4970401;29;20043;-86
2022/06/01 07:06:51;;;;;;;5.90;1.50;;;20.10;99.90;;;;;;4970883;29;20039;-86
2022/06/01 07:09:16;;;;;;;2.60;1.88;;;20.20;99.90;;;;;;4973257;28;20043;-89
2022/06/01 07:11:42;;;;;;;4.88;1.45;;;20.30;99.90;;;;;;4973276;29;20053;-83
2022/06/01 07:14:08;;;;;;;3.58;1.50;;;20.40;99.90;;;;;;4973951;28;20023;-84
2022/06/01 07:16:35;;;;;;;2.17;1.50;;;20.40;99.90;;;;;;4972822;28;20095;-85
2022/06/01 07:19:04;;;;;;;3.83;1.50;;;20.40;99.90;;;;;;4973595;28;20035;-86
2022/06/01 07:21:31;;;;;;;2.78;1.30;;;20.40;99.90;;;;;;4959626;29;20026;-87
2022/06/01 07:23:57;;;;;;;1.80;1.40;;;20.50;99.90;;;;;;4977149;28;20051;-87
2022/06/01 07:26:29;;;;;;;1.98;1.60;;;20.60;99.90;;;;;;4977940;28;20048;-84
2022/06/01 07:28:55;;;;;;;3.47;1.70;;;20.60;99.90;;;;;;4978119;28;20032;-84
2022/06/01 07:31:21;;;;;;;4.65;1.48;;;20.50;99.90;;;;;;4976447;29;20035;-84
2022/06/01 07:33:48;;;;;;;2.08;1.42;;;20.50;99.90;;;;;;4976792;29;20075;-86
2022/06/01 07:36:16;;;;;;;2.70;1.58;;;20.60;99.90;;;;;;4976409;28;20031;-85
2022/06/01 07:44:39;;;;;;;4.03;2.08;;;20.80;99.90;;;;;;4991154;28;20026;-78
2022/06/01 07:47:05;;;;;;;2.35;1.50;;;20.80;99.90;;;;;;4990987;28;20003;-77
2022/06/01 07:49:31;;;;;;;6.05;2.40;;;20.80;99.90;;;;;;4989867;28;20062;-79
2022/06/01 07:51:57;;;;;;;5.28;1.50;;;20.90;99.90;;;;;;4991834;28;20027;-78
2022/06/01 07:54:23;;;;;;;3.35;1.40;;;21.10;99.90;;;;;;4991352;28;20031;-78
2022/06/01 07:56:49;;;;;;;2.10;1.30;;;21.10;99.90;;;;;;4986646;28;20026;-79
2022/06/01 07:59:16;;;;;;;3.22;1.50;;;21.10;99.90;;;;;;4982302;28;20509;-78
2022/06/01 08:01:43;;;;;;;4.70;1.83;;;21.20;99.90;;;;;;4986925;28;20034;-81
2022/06/01 08:04:09;;;;;;;7.50;1.40;;;21.10;99.90;;;;;;4989863;28;20031;-80
2022/06/01 08:06:37;;;;;;;7.82;1.50;;;21.20;99.90;;;;;;4990797;28;20042;-79
2022/06/01 08:09:04;;;;;;;2.25;1.40;;;21.30;99.90;;;;;;4986192;28;20463;-79
2022/06/01 08:14:15;;;;;;;1.87;1.50;;;21.40;99.90;;;;;;4984124;28;20023;-78
2022/06/01 08:16:42;;;;;;;3.13;1.17;;;21.50;99.90;;;;;;4982550;28;20043;-78
2022/06/01 08:19:09;;;;;;;5.40;1.65;;;21.60;99.90;;;;;;4983865;28;20114;-79
2022/06/01 08:21:36;;;;;;;3.38;1.45;;;21.70;99.90;;;;;;4984008;28;20027;-79
2022/06/01 08:24:02;;;;;;;1.98;1.50;;;21.60;99.90;;;;;;4979927;28;20443;-77
2022/06/01 08:26:29;;;;;;;3.28;1.65;;;21.40;99.90;;;;;;4965166;28;20034;-78
2022/06/01 08:28:55;;;;;;;2.67;1.30;;;21.30;99.90;;;;;;4984112;28;20058;-79
2022/06/01 08:31:20;;;;;;;6.82;1.60;;;21.20;99.90;;;;;;4983206;28;20027;-78
2022/06/01 08:33:46;;;;;;;6.80;1.60;;;21.30;99.90;;;;;;4984643;28;20022;-79
2022/06/01 08:36:12;;;;;;;5.65;1.80;;;21.50;99.90;;;;;;4988994;28;20042;-77
2022/06/01 08:38:39;;;;;;;1.60;1.40;;;21.60;99.90;;;;;;4993013;28;20034;-79
2022/06/01 08:41:09;;;;;;;4.50;1.67;;;21.60;99.90;;;;;;4993060;28;20031;-78
2022/06/01 08:43:44;;;;;;;4.57;1.25;;;21.70;99.90;;;;;;4983612;28;20094;-79
2022/06/01 08:46:12;;;;;;;2.88;1.35;;;21.70;99.90;;;;;;4973607;28;20694;-78
2022/06/01 08:48:47;;;;;;;3.03;1.00;;;21.70;99.90;;;;;;4994849;28;20025;-80
2022/06/01 08:51:16;;;;;;;4.57;1.30;;;21.60;99.90;;;;;;4990978;28;20122;-79
2022/06/01 08:53:42;;;;;;;4.32;1.67;;;21.80;99.90;;;;;;4985831;28;20031;-78
2022/06/01 08:56:14;;;;;;;4.00;1.48;;;21.80;99.90;;;;;;5003165;28;20041;-79
2022/06/01 08:58:50;;;;;;;3.20;1.52;;;21.60;99.90;;;;;;5002073;28;20093;-80
2022/06/01 09:01:57;;;;;;;1.85;1.35;;;21.70;99.90;;;;;;5000623;28;20041;-78
2022/06/01 09:04:43;;;;;;;5.03;1.85;;;22.00;99.90;;;;;;4981855;28;20036;-80
2022/06/01 09:07:29;;;;;;;3.35;1.90;;;22.30;99.90;;;;;;4982008;28;20042;-79
2022/06/01 09:10:04;;;;;;;5.20;1.77;;;22.30;99.90;;;;;;4989270;28;20030;-80
2022/06/01 09:12:33;;;;;;;5.57;2.03;;;22.50;99.90;;;;;;4987354;28;20045;-79
2022/06/01 09:15:18;;;;;;;3.35;1.50;;;22.50;99.90;;;;;;4984066;28;20550;-78
2022/06/01 09:17:45;;;;;;;3.85;1.58;;;22.50;99.90;;;;;;4982923;28;20026;-78
2022/06/01 09:23:01;;;;;;;1.80;1.40;;;22.40;99.90;;;;;;4981454;28;20061;-79
2022/06/01 09:25:38;;;;;;;2.70;1.55;;;22.40;99.90;;;;;;4983673;28;20410;-79
2022/06/01 09:28:24;;;;;;;3.63;1.60;;;22.30;99.90;;;;;;4983152;28;20031;-77
2022/06/01 09:31:02;;;;;;;4.05;1.70;;;22.40;99.90;;;;;;4985408;28;20126;-78
2022/06/01 09:33:28;;;;;;;4.00;1.63;;;22.40;99.90;;;;;;4986627;28;20038;-80
2022/06/01 09:36:01;;;;;;;4.70;1.67;;;22.40;99.90;;;;;;4994618;28;20080;-78
2022/06/01 09:38:34;;;;;;;6.78;1.95;;;22.50;99.90;;;;;;4983347;28;20092;-79
2022/06/01 09:41:21;;;;;;;3.33;1.50;;;22.70;99.90;;;;;;4985319;28;20541;-80
2022/06/01 09:44:12;;;;;;;3.05;1.50;;;22.90;99.90;;;;;;5000593;28;20038;-78
2022/06/01 09:46:40;;;;;;;1.45;1.35;;;23.10;99.60;;;;;;5004411;28;20034;-80
2022/06/01 09:49:18;;;;;;;2.55;1.52;;;23.40;99.70;;;;;;5005938;28;20019;-78
2022/06/01 09:51:46;;;;;;;5.30;1.35;;;23.60;99.10;;;;;;4984595;28;20066;-79
2022/06/01 09:54:26;;;;;;;2.95;1.50;;;24.10;99.00;;;;;;4982915;28;20058;-78
2022/06/01 09:56:52;;;;;;;2.70;1.40;;;25.10;97.10;;;;;;4981604;28;20029;-80
2022/06/01 10:08:29;;;;;;;6.18;1.27;;;26.90;93.20;;;;;;5006511;28;20038;-80
2022/06/01 10:11:05;;;;;;;7.20;1.52;;;27.40;92.90;;;;;;4976485;28;20039;-79
2022/06/01 10:13:38;;;;;;;4.53;1.23;;;27.70;92.10;;;;;;4983508;28;20045;-82
2022/06/01 10:16:57;;;;;;;9.05;2.05;;;29.10;90.70;;;;;;4985103;28;20054;-80
2022/06/01 10:19:48;;;;;;;5.50;1.60;;;30.70;82.60;;;;;;4902170;29;20111;-80
2022/06/01 10:22:40;;;;;;;2.28;1.42;;;31.00;81.60;;;;;;4976627;28;20399;-77
2022/06/01 10:25:18;;;;;;;6.45;1.55;;;31.10;78.50;;;;;;4982362;28;20039;-80
2022/06/01 10:27:58;;;;;;;5.25;1.50;;;31.80;75.60;;;;;;4982342;28;20035;-79
2022/06/01 10:30:32;;;;;;;6.65;1.40;;;31.70;74.80;;;;;;4985352;28;20031;-79
2022/06/01 10:33:17;;;;;;;;;;;31.40;73.70;;;;;;4985388;28;20035;-78
2022/06/01 10:36:10;;;;;;;2.85;1.17;;;31.80;73.30;;;;;;4985638;28;19949;-78
2022/06/01 10:39:01;;;;;;;11.30;6.38;;;33.60;72.10;;;;;;4984995;28;20034;-78
2022/06/01 10:41:41;;;;;;;3.03;1.50;;;32.90;70.80;;;;;;5002907;28;20054;-79
2022/06/01 10:44:58;;;;;;;5.68;1.20;;;33.10;70.90;;;;;;4985618;28;20146;-79
2022/06/01 10:47:36;;;;;;;5.78;1.30;;;34.10;68.50;;;;;;4897530;29;20097;-80
2022/06/01 10:50:08;;;;;;;5.22;1.27;;;35.20;66.50;;;;;;4906821;29;20044;-77
2022/06/01 10:52:43;;;;;;;5.90;1.20;;;34.40;63.40;;;;;;4955412;28;20129;-76
2022/06/01 10:55:26;;;;;;;4.20;1.20;;;34.10;64.10;;;;;;4989157;28;20049;-77
2022/06/01 10:57:52;;;;;;;2.58;1.25;;;34.80;63.10;;;;;;4977188;28;20047;-77
2022/06/01 11:00:26;;;;;;;4.65;1.10;;;34.70;62.00;;;;;;4986449;28;20026;-76
2022/06/01 11:03:31;;;;;;;2.00;1.65;;;34.70;61.10;;;;;;4999598;28;20091;-78
2022/06/01 11:06:22;;;;;;;2.20;1.00;;;34.40;61.40;;;;;;4982726;28;20030;-78
2022/06/01 11:09:17;;;;;;;1.30;1.10;;;34.50;61.50;;;;;;4989935;28;20039;-78
2022/06/01 11:12:28;;;;;;;2.60;1.27;;;34.30;60.50;;;;;;4982201;28;20096;-78
2022/06/01 11:15:00;;;;;;;1.92;1.02;;;35.00;59.30;;;;;;4937051;29;20039;-80
2022/06/01 11:17:47;;;;;;;2.15;1.30;;;33.40;60.20;;;;;;4941931;29;20030;-80
2022/06/01 11:20:36;;;;;;;3.00;1.00;;;33.00;60.80;;;;;;4968876;28;20026;-80
2022/06/01 11:23:14;;;;;;;3.80;1.23;;;33.70;60.80;;;;;;4975895;28;20355;-80
2022/06/01 11:25:58;;;;;;;1.75;1.10;;;35.20;59.30;;;;;;4979860;28;20031;-79
2022/06/01 11:28:36;;;;;;;6.38;1.50;;;34.50;57.60;;;;;;4984300;28;20125;-79
2022/06/01 11:31:19;;;;;;;2.38;1.38;;;34.80;58.90;;;;;;4982933;28;20501;-80
2022/06/01 11:33:57;;;;;;;4.45;1.63;;;35.30;57.70;;;;;;4977536;28;20491;-78
2022/06/01 11:36:44;;;;;;;2.45;1.02;;;35.30;57.30;;;;;;4986912;28;20047;-77
2022/06/01 11:39:27;;;;;;;2.17;1.20;;;36.40;57.40;;;;;;4987758;28;20030;-77
2022/06/01 11:42:04;;;;;;;1.80;1.05;;;35.70;55.40;;;;;;4988622;28;20018;-78
2022/06/01 11:44:37;;;;;;;3.17;1.38;;;33.30;55.00;;;;;;4992054;28;20035;-77
2022/06/01 11:47:14;;;;;;;2.95;1.35;;;32.90;56.60;;;;;;4983929;28;20086;-78
2022/06/01 11:49:43;;;;;;;8.95;1.60;;;34.80;54.50;;;;;;4987125;28;20041;-79
2022/06/01 11:52:23;;;;;;;3.38;1.40;;;36.30;50.60;;;;;;4986678;28;20027;-80
2022/06/01 11:55:09;;;;;;;2.38;1.30;;;37.40;52.00;;;;;;4981333;28;20031;-79
2022/06/01 11:58:07;;;;;;;3.53;1.10;;;37.20;47.70;;;;;;4985777;28;20041;-79
2022/06/01 12:00:40;;;;;;;1.73;1.20;;;37.50;48.60;;;;;;4981447;28;20483;-79
2022/06/01 12:03:24;;;;;;;8.07;1.45;;;37.90;47.30;;;;;;4982775;28;20152;-80
2022/06/01 12:06:11;;;;;;;5.07;1.45;;;37.50;46.50;;;;;;4978561;28;20039;-78
2022/06/01 12:08:46;;;;;;;1.85;1.30;;;36.90;46.90;;;;;;4975921;28;20050;-78
2022/06/01 12:11:43;;;;;;;3.00;1.00;;;37.00;46.50;;;;;;4984583;28;20041;-79
2022/06/01 12:14:38;;;;;;;2.63;1.23;;;37.40;46.80;;;;;;4984958;28;20055;-79
2022/06/01 12:17:17;;;;;;;2.33;0.88;;;37.40;45.70;;;;;;4963315;29;20031;-79
2022/06/01 12:19:45;;;;;;;5.50;1.48;;;37.90;44.50;;;;;;4972198;29;20027;-77
2022/06/01 12:31:17;;;;;;;1.92;0.90;;;38.50;44.50;;;;;;4984355;28;20039;-79
2022/06/01 12:34:17;;;;;;;1.55;0.80;;;37.70;45.00;;;;;;4982664;28;20027;-78
2022/06/01 12:36:55;;;;;;;1.80;1.10;;;38.50;43.80;;;;;;4968376;28;20041;-78
2022/06/01 12:39:29;;;;;;;5.22;1.35;;;38.80;43.50;;;;;;4983902;28;20402;-78
2022/06/01 12:41:59;;;;;;;;;;;38.30;43.70;;;;;;4986942;28;20113;-77
2022/06/01 12:44:26;;;;;;;2.15;0.95;;;38.00;43.10;;;;;;4969079;28;19921;-77
2022/06/01 12:46:51;;;;;;;2.67;1.17;;;38.10;43.70;;;;;;4984261;28;20023;-78
2022/06/01 12:49:32;;;;;;;2.50;1.27;;;38.20;42.80;;;;;;5003929;28;20039;-77
2022/06/01 12:52:20;;;;;;;1.35;0.93;;;37.80;42.90;;;;;;4986274;28;20474;-78
2022/06/01 12:55:01;;;;;;;2.08;0.88;;;38.10;43.70;;;;;;4986497;28;20033;-77
2022/06/01 12:57:31;;;;;;;1.88;1.30;;;38.40;43.60;;;;;;4987258;28;20043;-78
2022/06/01 13:00:11;;;;;;;2.33;1.00;;;34.50;44.70;;;;;;4977828;28;20414;-79
2022/06/01 13:02:39;;;;;;;1.05;0.80;;;33.80;46.60;;;;;;4964991;28;20450;-77
2022/06/01 13:05:10;;;;;;;6.53;1.20;;;35.40;46.00;;;;;;4980263;28;20029;-79
2022/06/01 13:07:39;;;;;;;1.95;1.17;;;37.00;44.60;;;;;;4980411;28;20030;-79
2022/06/01 13:10:13;;;;;;;5.45;1.25;;;37.40;45.50;;;;;;4980367;28;20090;-81
2022/06/01 13:12:39;;;;;;;2.05;1.08;;;37.20;46.10;;;;;;4979982;28;20034;-77
2022/06/01 13:15:13;;;;;;;2.40;1.17;;;37.30;44.50;;;;;;4984277;28;20031;-77
2022/06/01 13:18:07;;;;;;;3.35;1.00;;;38.10;45.00;;;;;;4971833;28;20035;-80
2022/06/01 13:20:37;;;;;;;5.40;2.58;;;37.50;45.70;;;;;;4960963;29;20054;-78
2022/06/01 13:23:15;;;;;;;2.65;1.30;;;38.60;44.60;;;;;;4970416;28;20042;-79
2022/06/01 13:25:41;;;;;;;3.13;1.20;;;38.80;44.80;;;;;;4987204;28;20035;-79
2022/06/01 13:28:10;;;;;;;4.30;1.25;;;39.10;43.00;;;;;;4983686;28;20050;-78
2022/06/01 13:30:37;;;;;;;2.03;1.00;;;38.90;43.10;;;;;;4981718;28;20368;-78
2022/06/01 13:33:22;;;;;;;3.05;1.35;;;38.00;43.10;;;;;;4980114;28;20096;-80
2022/06/01 13:35:57;;;;;;;6.45;1.88;;;36.60;45.10;;;;;;4975045;28;20019;-79
2022/06/01 13:38:32;;;;;;;2.85;1.20;;;35.70;44.90;;;;;;4980714;28;20027;-78
2022/06/01 13:41:09;;;;;;;3.45;1.00;;;34.40;46.80;;;;;;4981793;28;20428;-81
2022/06/01 13:43:44;;;;;;;6.13;1.00;;;33.40;46.40;;;;;;5009684;23;20050;-88
2022/06/01 13:46:13;;;;;;;3.55;1.30;;;32.40;47.20;;;;;;4996447;28;20019;-88